createdAt,value
2023-03-30T09:26:49.072Z,1.48
2023-03-30T09:31:56.535Z,1.71
2023-03-30T09:37:04.894Z,1.93
2023-03-30T09:42:19.867Z,2.12
2023-03-30T09:47:26.271Z,2.27
2023-03-30T09:52:32.168Z,2.88
2023-03-30T09:57:39.026Z,2.77
2023-03-30T10:02:55.979Z,3.13
2023-03-30T10:08:01.335Z,3.35
2023-03-30T10:13:18.265Z,3.41
2023-03-30T10:18:27.486Z,3.41
2023-03-30T10:23:33.326Z,3.34
2023-03-30T10:28:38.392Z,3.20
2023-03-30T10:33:43.294Z,2.81
2023-03-30T10:38:47.461Z,2.34
2023-03-30T10:43:53.107Z,2.20
2023-03-30T10:49:07.252Z,2.44
2023-03-30T10:54:17.132Z,2.62
2023-03-30T10:59:40.778Z,2.72
2023-03-30T11:04:47.185Z,2.61
2023-03-30T11:09:54.688Z,2.68
2023-03-30T11:15:06.884Z,2.58
2023-03-30T11:20:21.371Z,2.55
2023-03-30T11:25:26.486Z,2.62
2023-03-30T11:30:35.783Z,2.68
2023-03-30T11:35:46.844Z,2.66
2023-03-30T11:40:52.170Z,2.43
2023-03-30T11:46:03.815Z,2.34
2023-03-30T11:51:13.577Z,2.01
2023-03-30T11:56:24.525Z,2.14
2023-03-30T12:01:44.591Z,2.10
2023-03-30T12:06:53.806Z,1.96
2023-03-30T12:12:07.160Z,2.23
2023-03-30T12:17:15.766Z,2.34
2023-03-30T12:22:25.457Z,2.38
2023-03-30T12:27:31.313Z,2.42
2023-03-30T12:32:36.033Z,2.74
2023-03-30T12:37:48.155Z,2.72
2023-03-30T12:43:02.361Z,2.77
2023-03-30T12:48:18.738Z,2.62
2023-03-30T12:53:30.789Z,2.80
2023-03-30T12:58:52.328Z,3.49
2023-03-30T13:03:56.523Z,3.73
2023-03-30T13:09:25.375Z,3.80
2023-03-30T13:14:44.947Z,3.49
2023-03-30T13:20:05.900Z,3.75
2023-03-30T13:25:26.989Z,4.04
2023-03-30T13:30:37.940Z,3.84
2023-03-30T13:35:52.514Z,3.18
2023-03-30T13:41:05.000Z,2.64
2023-03-30T13:46:18.278Z,1.38
2023-03-30T13:51:24.328Z,-0.65
2023-03-30T13:56:32.360Z,-1.97
2023-03-30T14:01:39.846Z,-3.71
2023-03-30T14:06:45.670Z,-4.11
2023-03-30T14:11:50.337Z,-4.13
2023-03-30T14:16:56.844Z,-4.09
2023-03-30T14:22:01.686Z,-4.04
2023-03-30T14:27:06.736Z,-4.04
2023-03-30T14:32:15.635Z,-4.09
2023-03-30T14:37:21.462Z,-4.09
2023-03-30T14:42:27.434Z,-4.00
2023-03-30T14:47:33.417Z,-4.00
2023-03-30T14:52:39.791Z,-3.98
2023-03-30T14:57:44.649Z,-4.01
2023-03-30T15:02:53.529Z,-4.08
2023-03-30T15:07:57.315Z,-4.14
2023-03-30T15:13:01.273Z,-4.18
2023-03-30T15:18:06.628Z,-4.13
2023-03-30T15:23:13.124Z,-3.97
2023-03-30T15:28:19.105Z,-3.90
2023-03-30T15:33:26.117Z,-3.88
2023-03-30T15:38:31.089Z,-3.82
2023-03-30T15:43:38.464Z,-3.91
2023-03-30T15:48:45.734Z,-3.79
2023-03-30T15:53:51.724Z,-3.67
2023-03-30T15:58:59.725Z,-3.62
2023-03-30T16:04:06.689Z,-3.67
2023-03-30T16:09:11.555Z,-3.55
2023-03-30T16:14:16.834Z,-3.52
2023-03-30T16:19:22.781Z,-3.65
2023-03-30T16:24:26.320Z,-3.66
2023-03-30T16:29:31.889Z,-3.66
2023-03-30T16:34:55.530Z,-3.36
2023-03-30T16:40:02.292Z,-3.21
2023-03-30T16:45:10.331Z,-3.14
2023-03-30T16:50:20.571Z,-3.26
2023-03-30T16:55:26.378Z,-3.24
2023-03-30T17:00:34.912Z,-3.26
2023-03-30T17:05:48.284Z,-3.24
2023-03-30T17:10:54.895Z,-3.33
2023-03-30T17:16:01.438Z,-3.30
2023-03-30T17:21:09.350Z,-3.36
2023-03-30T17:26:13.367Z,-3.61
2023-03-30T17:31:18.038Z,-3.86
2023-03-30T17:36:24.983Z,-4.09
2023-03-30T17:41:28.853Z,-4.29
2023-03-30T17:46:33.564Z,-4.54
2023-03-30T18:19:48.549Z,-5.45
2023-03-30T18:24:52.066Z,-5.51
2023-03-30T18:29:55.983Z,-5.62
2023-03-30T18:35:03.939Z,-5.66
2023-03-30T18:40:17.665Z,-5.71
2023-03-30T18:45:22.719Z,-5.81
2023-03-30T18:50:33.193Z,-5.85
2023-03-30T18:55:38.209Z,-5.75
2023-03-30T19:00:49.394Z,-5.66
2023-03-30T19:06:09.230Z,-5.52
2023-03-30T19:11:18.110Z,-5.25
2023-03-30T19:16:23.121Z,-5.10
2023-03-30T19:21:33.278Z,-5.71
2023-03-30T19:26:41.774Z,-6.02
2023-03-30T19:31:49.106Z,-5.97
2023-03-30T19:36:55.861Z,-5.99
2023-03-30T19:42:02.021Z,-6.08
2023-03-30T19:47:15.640Z,-6.08
2023-03-30T19:52:31.633Z,-6.12
2023-03-30T19:57:36.459Z,-6.27
2023-03-30T20:02:41.418Z,-6.29
2023-03-30T20:07:47.444Z,-6.25
2023-03-30T20:12:55.336Z,-6.26
2023-03-30T20:18:00.211Z,-6.47
2023-03-30T20:23:07.008Z,-6.73
2023-03-30T20:28:11.416Z,-6.93
2023-03-30T20:33:20.892Z,-7.00
2023-03-30T20:38:27.746Z,-6.91
2023-03-30T20:43:33.771Z,-6.90
2023-03-30T20:48:39.913Z,-6.92
2023-03-30T20:53:48.973Z,-6.99
2023-03-30T20:58:52.487Z,-7.20
2023-03-30T21:03:59.310Z,-7.32
2023-03-30T21:09:08.492Z,-7.31
2023-03-30T21:14:13.188Z,-7.24
2023-03-30T21:19:18.059Z,-7.20
